sensor_id;sensor_type;location;lat;lon;timestamp;temperature;humidity
11840;DHT22;5979;50.800;4.904;2024-01-11T00:01:13;-4.00;99.90
11840;DHT22;5979;50.800;4.904;2024-01-11T00:03:39;-4.00;99.90
11840;DHT22;5979;50.800;4.904;2024-01-11T00:06:04;-4.00;99.90
11840;DHT22;5979;50.800;4.904;2024-01-11T00:08:30;-4.00;99.90
11840;DHT22;5979;50.800;4.904;2024-01-11T00:10:56;-4.00;99.90
11840;DHT22;5979;50.800;4.904;2024-01-11T00:13:22;-4.00;99.90
11840;DHT22;5979;50.800;4.904;2024-01-11T00:15:48;-4.00;99.90
11840;DHT22;5979;50.800;4.904;2024-01-11T00:18:13;-3.90;99.90
11840;DHT22;5979;50.800;4.904;2024-01-11T00:20:39;-3.90;99.90
11840;DHT22;5979;50.800;4.904;2024-01-11T00:23:05;-3.90;99.90
11840;DHT22;5979;50.800;4.904;2024-01-11T00:25:30;-3.90;99.90
11840;DHT22;5979;50.800;4.904;2024-01-11T00:27:56;-3.90;99.90
11840;DHT22;5979;50.800;4.904;2024-01-11T00:30:21;-3.90;99.90
11840;DHT22;5979;50.800;4.904;2024-01-11T00:32:48;-3.90;99.90
11840;DHT22;5979;50.800;4.904;2024-01-11T00:35:14;-3.90;99.90
11840;DHT22;5979;50.800;4.904;2024-01-11T00:37:40;-3.90;99.90
11840;DHT22;5979;50.800;4.904;2024-01-11T00:40:06;-3.90;99.90
11840;DHT22;5979;50.800;4.904;2024-01-11T00:42:32;-3.90;99.90
11840;DHT22;5979;50.800;4.904;2024-01-11T00:45:00;-3.90;99.90
11840;DHT22;5979;50.800;4.904;2024-01-11T00:47:27;-4.00;99.90
11840;DHT22;5979;50.800;4.904;2024-01-11T00:49:52;-4.00;99.90
11840;DHT22;5979;50.800;4.904;2024-01-11T00:52:19;-4.00;99.90
11840;DHT22;5979;50.800;4.904;2024-01-11T00:54:45;-4.00;99.90
11840;DHT22;5979;50.800;4.904;2024-01-11T00:57:10;-4.00;99.90
11840;DHT22;5979;50.800;4.904;2024-01-11T00:59:36;-4.00;99.90
11840;DHT22;5979;50.800;4.904;2024-01-11T01:02:02;-4.00;99.90
11840;DHT22;5979;50.800;4.904;2024-01-11T01:04:27;-4.00;99.90
11840;DHT22;5979;50.800;4.904;2024-01-11T01:06:53;-4.00;99.90
11840;DHT22;5979;50.800;4.904;2024-01-11T01:09:19;-4.00;99.90
11840;DHT22;5979;50.800;4.904;2024-01-11T01:11:44;-4.00;99.90
11840;DHT22;5979;50.800;4.904;2024-01-11T01:14:10;-4.00;99.90
11840;DHT22;5979;50.800;4.904;2024-01-11T01:16:36;-4.10;99.90
11840;DHT22;5979;50.800;4.904;2024-01-11T01:19:01;-4.00;99.90
11840;DHT22;5979;50.800;4.904;2024-01-11T01:21:27;-4.10;99.90
11840;DHT22;5979;50.800;4.904;2024-01-11T01:23:53;-4.00;99.90
11840;DHT22;5979;50.800;4.904;2024-01-11T01:26:19;-4.10;99.90
11840;DHT22;5979;50.800;4.904;2024-01-11T01:28:45;-4.10;99.90
11840;DHT22;5979;50.800;4.904;2024-01-11T01:31:11;-4.10;99.90
11840;DHT22;5979;50.800;4.904;2024-01-11T01:33:37;-4.10;99.90
11840;DHT22;5979;50.800;4.904;2024-01-11T01:36:03;-4.00;99.90
11840;DHT22;5979;50.800;4.904;2024-01-11T01:38:29;-4.00;99.90
11840;DHT22;5979;50.800;4.904;2024-01-11T01:40:55;-4.00;99.90
11840;DHT22;5979;50.800;4.904;2024-01-11T01:43:21;-4.00;99.90
11840;DHT22;5979;50.800;4.904;2024-01-11T01:45:47;-4.00;99.90
11840;DHT22;5979;50.800;4.904;2024-01-11T01:48:13;-4.00;99.90
11840;DHT22;5979;50.800;4.904;2024-01-11T01:50:39;-4.00;99.90
11840;DHT22;5979;50.800;4.904;2024-01-11T01:53:05;-4.00;99.90
11840;DHT22;5979;50.800;4.904;2024-01-11T01:55:31;-4.00;99.90
11840;DHT22;5979;50.800;4.904;2024-01-11T01:57:58;-4.10;99.90
11840;DHT22;5979;50.800;4.904;2024-01-11T02:00:25;-4.10;99.90
11840;DHT22;5979;50.800;4.904;2024-01-11T02:02:51;-4.10;99.90
11840;DHT22;5979;50.800;4.904;2024-01-11T02:05:18;-4.10;99.90
11840;DHT22;5979;50.800;4.904;2024-01-11T02:07:44;-4.20;99.90
11840;DHT22;5979;50.800;4.904;2024-01-11T02:10:10;-4.20;99.90
11840;DHT22;5979;50.800;4.904;2024-01-11T02:12:36;-4.20;99.90
11840;DHT22;5979;50.800;4.904;2024-01-11T02:15:03;-4.20;99.90
11840;DHT22;5979;50.800;4.904;2024-01-11T02:17:30;-4.30;99.90
11840;DHT22;5979;50.800;4.904;2024-01-11T02:19:56;-4.30;99.90
11840;DHT22;5979;50.800;4.904;2024-01-11T02:22:28;-4.40;99.90
11840;DHT22;5979;50.800;4.904;2024-01-11T02:24:54;-4.40;99.90
11840;DHT22;5979;50.800;4.904;2024-01-11T02:27:20;-4.40;99.90
11840;DHT22;5979;50.800;4.904;2024-01-11T02:29:45;-4.40;99.90
11840;DHT22;5979;50.800;4.904;2024-01-11T02:32:11;-4.40;99.90
11840;DHT22;5979;50.800;4.904;2024-01-11T02:34:37;-4.50;99.90
11840;DHT22;5979;50.800;4.904;2024-01-11T02:37:05;-4.50;99.90
11840;DHT22;5979;50.800;4.904;2024-01-11T02:39:31;-4.50;99.90
11840;DHT22;5979;50.800;4.904;2024-01-11T02:41:58;-4.50;99.90
11840;DHT22;5979;50.800;4.904;2024-01-11T02:44:24;-4.40;99.90
11840;DHT22;5979;50.800;4.904;2024-01-11T02:46:50;-4.50;99.90
11840;DHT22;5979;50.800;4.904;2024-01-11T02:49:16;-4.50;99.90
11840;DHT22;5979;50.800;4.904;2024-01-11T02:51:41;-4.60;99.90
11840;DHT22;5979;50.800;4.904;2024-01-11T02:54:07;-4.60;99.90
11840;DHT22;5979;50.800;4.904;2024-01-11T02:56:33;-4.60;99.90
11840;DHT22;5979;50.800;4.904;2024-01-11T02:58:59;-4.60;99.90
11840;DHT22;5979;50.800;4.904;2024-01-11T03:01:24;-4.60;99.90
11840;DHT22;5979;50.800;4.904;2024-01-11T03:03:50;-4.60;99.90
11840;DHT22;5979;50.800;4.904;2024-01-11T03:06:16;-4.60;99.90
11840;DHT22;5979;50.800;4.904;2024-01-11T03:08:47;-4.60;99.90
11840;DHT22;5979;50.800;4.904;2024-01-11T03:11:13;-4.60;99.90
11840;DHT22;5979;50.800;4.904;2024-01-11T03:13:39;-4.60;99.90
11840;DHT22;5979;50.800;4.904;2024-01-11T03:16:05;-4.50;99.90
11840;DHT22;5979;50.800;4.904;2024-01-11T03:18:31;-4.60;99.90
11840;DHT22;5979;50.800;4.904;2024-01-11T03:20:57;-4.60;99.90
11840;DHT22;5979;50.800;4.904;2024-01-11T03:23:23;-4.60;99.90
11840;DHT22;5979;50.800;4.904;2024-01-11T03:25:48;-4.60;99.90
11840;DHT22;5979;50.800;4.904;2024-01-11T03:28:14;-4.60;99.90
11840;DHT22;5979;50.800;4.904;2024-01-11T03:30:40;-4.60;99.90
11840;DHT22;5979;50.800;4.904;2024-01-11T03:33:06;-4.60;99.90
11840;DHT22;5979;50.800;4.904;2024-01-11T03:38:53;-4.50;99.90
11840;DHT22;5979;50.800;4.904;2024-01-11T03:41:19;-4.50;99.90
11840;DHT22;5979;50.800;4.904;2024-01-11T03:43:45;-4.50;99.90
11840;DHT22;5979;50.800;4.904;2024-01-11T03:46:10;-4.60;99.90
11840;DHT22;5979;50.800;4.904;2024-01-11T03:48:36;-4.60;99.90
11840;DHT22;5979;50.800;4.904;2024-01-11T03:51:02;-4.60;99.90
11840;DHT22;5979;50.800;4.904;2024-01-11T03:53:28;-4.60;99.90
11840;DHT22;5979;50.800;4.904;2024-01-11T03:55:54;-4.70;99.90
11840;DHT22;5979;50.800;4.904;2024-01-11T03:58:19;-4.70;99.90
11840;DHT22;5979;50.800;4.904;2024-01-11T04:00:45;-4.70;99.90
11840;DHT22;5979;50.800;4.904;2024-01-11T04:03:11;-4.70;99.90
11840;DHT22;5979;50.800;4.904;2024-01-11T04:05:37;-4.70;99.90
11840;DHT22;5979;50.800;4.904;2024-01-11T04:08:06;-4.70;99.90
11840;DHT22;5979;50.800;4.904;2024-01-11T04:10:35;-4.70;99.90
11840;DHT22;5979;50.800;4.904;2024-01-11T04:13:01;-4.70;99.90
11840;DHT22;5979;50.800;4.904;2024-01-11T04:15:26;-4.70;99.90
11840;DHT22;5979;50.800;4.904;2024-01-11T04:17:52;-4.80;99.90
11840;DHT22;5979;50.800;4.904;2024-01-11T04:20:21;-4.80;99.90
11840;DHT22;5979;50.800;4.904;2024-01-11T04:22:46;-4.70;99.90
11840;DHT22;5979;50.800;4.904;2024-01-11T04:25:12;-4.70;99.90
11840;DHT22;5979;50.800;4.904;2024-01-11T04:27:38;-4.80;99.90
11840;DHT22;5979;50.800;4.904;2024-01-11T04:30:04;-4.80;99.90
11840;DHT22;5979;50.800;4.904;2024-01-11T04:32:29;-4.80;99.90
11840;DHT22;5979;50.800;4.904;2024-01-11T04:34:55;-4.70;99.90
11840;DHT22;5979;50.800;4.904;2024-01-11T04:37:21;-4.70;99.90
11840;DHT22;5979;50.800;4.904;2024-01-11T04:39:46;-4.70;99.90
11840;DHT22;5979;50.800;4.904;2024-01-11T04:42:12;-4.70;99.90
11840;DHT22;5979;50.800;4.904;2024-01-11T04:44:38;-4.70;99.90
11840;DHT22;5979;50.800;4.904;2024-01-11T04:47:04;-4.70;99.90
11840;DHT22;5979;50.800;4.904;2024-01-11T04:49:29;-4.60;99.90
11840;DHT22;5979;50.800;4.904;2024-01-11T04:51:55;-4.70;99.90
11840;DHT22;5979;50.800;4.904;2024-01-11T04:54:21;-4.60;99.90
11840;DHT22;5979;50.800;4.904;2024-01-11T04:56:46;-4.60;99.90
11840;DHT22;5979;50.800;4.904;2024-01-11T04:59:12;-4.60;99.90
11840;DHT22;5979;50.800;4.904;2024-01-11T05:01:38;-4.60;99.90
11840;DHT22;5979;50.800;4.904;2024-01-11T05:04:04;-4.60;99.90
11840;DHT22;5979;50.800;4.904;2024-01-11T05:06:29;-4.60;99.90
11840;DHT22;5979;50.800;4.904;2024-01-11T05:08:55;-4.60;99.90
11840;DHT22;5979;50.800;4.904;2024-01-11T05:11:22;-4.60;99.90
11840;DHT22;5979;50.800;4.904;2024-01-11T05:13:50;-4.60;99.90
11840;DHT22;5979;50.800;4.904;2024-01-11T05:18:49;-4.60;99.90
11840;DHT22;5979;50.800;4.904;2024-01-11T05:21:14;-4.60;99.90
11840;DHT22;5979;50.800;4.904;2024-01-11T05:23:41;-4.60;99.90
11840;DHT22;5979;50.800;4.904;2024-01-11T05:26:08;-4.60;99.90
11840;DHT22;5979;50.800;4.904;2024-01-11T05:28:33;-4.60;99.90
11840;DHT22;5979;50.800;4.904;2024-01-11T05:30:59;-4.60;99.90
11840;DHT22;5979;50.800;4.904;2024-01-11T05:33:25;-4.60;99.90
11840;DHT22;5979;50.800;4.904;2024-01-11T05:35:51;-4.70;99.90
11840;DHT22;5979;50.800;4.904;2024-01-11T05:38:19;-4.70;99.90
11840;DHT22;5979;50.800;4.904;2024-01-11T05:40:45;-4.60;99.90
11840;DHT22;5979;50.800;4.904;2024-01-11T05:43:11;-4.70;99.90
11840;DHT22;5979;50.800;4.904;2024-01-11T05:45:36;-4.70;99.90
11840;DHT22;5979;50.800;4.904;2024-01-11T05:48:21;-4.70;99.90
11840;DHT22;5979;50.800;4.904;2024-01-11T05:50:46;-4.70;99.90
11840;DHT22;5979;50.800;4.904;2024-01-11T05:53:13;-4.70;99.90
11840;DHT22;5979;50.800;4.904;2024-01-11T05:55:39;-4.70;99.90
11840;DHT22;5979;50.800;4.904;2024-01-11T05:58:05;-4.70;99.90
11840;DHT22;5979;50.800;4.904;2024-01-11T06:00:31;-4.70;99.90
11840;DHT22;5979;50.800;4.904;2024-01-11T06:02:56;-4.70;99.90
11840;DHT22;5979;50.800;4.904;2024-01-11T06:05:22;-4.80;99.90
11840;DHT22;5979;50.800;4.904;2024-01-11T06:07:48;-4.70;99.90
11840;DHT22;5979;50.800;4.904;2024-01-11T06:10:14;-4.70;99.90
11840;DHT22;5979;50.800;4.904;2024-01-11T06:12:40;-4.70;99.90
11840;DHT22;5979;50.800;4.904;2024-01-11T06:15:07;-4.70;99.90
11840;DHT22;5979;50.800;4.904;2024-01-11T06:17:33;-4.70;99.90
11840;DHT22;5979;50.800;4.904;2024-01-11T06:19:58;-4.70;99.90
11840;DHT22;5979;50.800;4.904;2024-01-11T06:22:24;-4.70;99.90
11840;DHT22;5979;50.800;4.904;2024-01-11T06:24:50;-4.70;99.90
11840;DHT22;5979;50.800;4.904;2024-01-11T06:27:16;-4.80;99.90
11840;DHT22;5979;50.800;4.904;2024-01-11T06:29:41;-4.80;99.90
11840;DHT22;5979;50.800;4.904;2024-01-11T06:32:07;-4.80;99.90
11840;DHT22;5979;50.800;4.904;2024-01-11T06:34:34;-4.80;99.90
11840;DHT22;5979;50.800;4.904;2024-01-11T06:37:01;-4.80;99.90
11840;DHT22;5979;50.800;4.904;2024-01-11T06:39:28;-4.90;99.90
11840;DHT22;5979;50.800;4.904;2024-01-11T06:41:55;-4.90;99.90
11840;DHT22;5979;50.800;4.904;2024-01-11T06:44:21;-4.90;99.90
11840;DHT22;5979;50.800;4.904;2024-01-11T06:46:46;-4.90;99.90
11840;DHT22;5979;50.800;4.904;2024-01-11T06:49:12;-4.90;99.90
11840;DHT22;5979;50.800;4.904;2024-01-11T06:51:38;-4.90;99.90
11840;DHT22;5979;50.800;4.904;2024-01-11T06:54:05;-4.90;99.90
11840;DHT22;5979;50.800;4.904;2024-01-11T06:56:30;-4.90;99.90
11840;DHT22;5979;50.800;4.904;2024-01-11T06:58:56;-4.90;99.90
11840;DHT22;5979;50.800;4.904;2024-01-11T07:01:22;-4.90;99.90
11840;DHT22;5979;50.800;4.904;2024-01-11T07:03:48;-4.90;99.90
11840;DHT22;5979;50.800;4.904;2024-01-11T07:06:15;-4.90;99.90
11840;DHT22;5979;50.800;4.904;2024-01-11T07:08:41;-4.90;99.90
11840;DHT22;5979;50.800;4.904;2024-01-11T07:11:06;-4.90;99.90
11840;DHT22;5979;50.800;4.904;2024-01-11T07:13:33;-4.90;99.90
11840;DHT22;5979;50.800;4.904;2024-01-11T07:15:59;-4.90;99.90
11840;DHT22;5979;50.800;4.904;2024-01-11T07:18:28;-4.90;99.90
11840;DHT22;5979;50.800;4.904;2024-01-11T07:20:56;-5.00;99.90
11840;DHT22;5979;50.800;4.904;2024-01-11T07:23:22;-5.00;99.90
11840;DHT22;5979;50.800;4.904;2024-01-11T07:25:48;-5.00;99.90
11840;DHT22;5979;50.800;4.904;2024-01-11T07:28:14;-5.10;99.90
11840;DHT22;5979;50.800;4.904;2024-01-11T07:30:39;-5.10;99.90
11840;DHT22;5979;50.800;4.904;2024-01-11T07:33:05;-5.10;99.90
11840;DHT22;5979;50.800;4.904;2024-01-11T07:35:31;-5.10;99.90
11840;DHT22;5979;50.800;4.904;2024-01-11T07:37:58;-5.10;99.90
11840;DHT22;5979;50.800;4.904;2024-01-11T07:40:24;-5.10;99.90
11840;DHT22;5979;50.800;4.904;2024-01-11T07:42:49;-5.10;99.90
11840;DHT22;5979;50.800;4.904;2024-01-11T07:45:15;-5.20;99.90
11840;DHT22;5979;50.800;4.904;2024-01-11T07:47:41;-5.20;99.90
11840;DHT22;5979;50.800;4.904;2024-01-11T07:50:07;-5.10;99.90
11840;DHT22;5979;50.800;4.904;2024-01-11T07:52:35;-5.00;99.90
11840;DHT22;5979;50.800;4.904;2024-01-11T07:55:02;-5.00;99.90
11840;DHT22;5979;50.800;4.904;2024-01-11T07:57:36;-5.00;99.90
11840;DHT22;5979;50.800;4.904;2024-01-11T08:00:03;-5.00;99.90
11840;DHT22;5979;50.800;4.904;2024-01-11T08:02:32;-4.90;99.90
11840;DHT22;5979;50.800;4.904;2024-01-11T08:04:58;-4.90;99.90
11840;DHT22;5979;50.800;4.904;2024-01-11T08:07:26;-4.80;99.90
11840;DHT22;5979;50.800;4.904;2024-01-11T08:09:52;-4.80;99.90
11840;DHT22;5979;50.800;4.904;2024-01-11T08:12:17;-4.80;99.90
11840;DHT22;5979;50.800;4.904;2024-01-11T08:14:43;-4.70;99.90
11840;DHT22;5979;50.800;4.904;2024-01-11T08:17:10;-4.60;99.90
11840;DHT22;5979;50.800;4.904;2024-01-11T08:19:36;-4.60;99.90
11840;DHT22;5979;50.800;4.904;2024-01-11T08:22:29;-4.60;99.90
11840;DHT22;5979;50.800;4.904;2024-01-11T08:24:59;-4.60;99.90
11840;DHT22;5979;50.800;4.904;2024-01-11T08:27:24;-4.60;99.90
11840;DHT22;5979;50.800;4.904;2024-01-11T08:29:50;-4.50;99.90
11840;DHT22;5979;50.800;4.904;2024-01-11T08:32:16;-4.40;99.90
11840;DHT22;5979;50.800;4.904;2024-01-11T08:34:42;-4.40;99.90
11840;DHT22;5979;50.800;4.904;2024-01-11T08:37:08;-4.30;99.90
11840;DHT22;5979;50.800;4.904;2024-01-11T08:39:33;-4.20;99.90
11840;DHT22;5979;50.800;4.904;2024-01-11T08:41:59;-4.20;99.90
11840;DHT22;5979;50.800;4.904;2024-01-11T08:44:25;-4.10;99.90
11840;DHT22;5979;50.800;4.904;2024-01-11T08:46:50;-4.10;99.90
11840;DHT22;5979;50.800;4.904;2024-01-11T08:49:16;-4.00;99.90
11840;DHT22;5979;50.800;4.904;2024-01-11T08:51:42;-3.90;99.90
11840;DHT22;5979;50.800;4.904;2024-01-11T08:54:07;-3.80;99.90
11840;DHT22;5979;50.800;4.904;2024-01-11T08:56:34;-3.80;99.90
11840;DHT22;5979;50.800;4.904;2024-01-11T08:59:01;-3.80;99.90
11840;DHT22;5979;50.800;4.904;2024-01-11T09:01:27;-3.70;99.90
11840;DHT22;5979;50.800;4.904;2024-01-11T09:03:53;-3.60;99.90
11840;DHT22;5979;50.800;4.904;2024-01-11T09:06:18;-3.50;99.90
11840;DHT22;5979;50.800;4.904;2024-01-11T09:08:44;-3.50;99.90
11840;DHT22;5979;50.800;4.904;2024-01-11T09:11:10;-3.40;99.90
11840;DHT22;5979;50.800;4.904;2024-01-11T09:13:36;-3.40;99.90
11840;DHT22;5979;50.800;4.904;2024-01-11T09:16:02;-3.40;99.90
11840;DHT22;5979;50.800;4.904;2024-01-11T09:18:28;-3.40;99.90
11840;DHT22;5979;50.800;4.904;2024-01-11T09:20:53;-3.40;99.90
11840;DHT22;5979;50.800;4.904;2024-01-11T09:23:23;-3.20;99.90
11840;DHT22;5979;50.800;4.904;2024-01-11T09:25:49;-3.10;99.90
11840;DHT22;5979;50.800;4.904;2024-01-11T09:28:15;-3.10;99.90
11840;DHT22;5979;50.800;4.904;2024-01-11T09:30:40;-3.10;99.90
11840;DHT22;5979;50.800;4.904;2024-01-11T09:33:06;-3.00;99.90
11840;DHT22;5979;50.800;4.904;2024-01-11T09:35:32;-2.90;99.90
11840;DHT22;5979;50.800;4.904;2024-01-11T09:37:58;-2.90;99.90
11840;DHT22;5979;50.800;4.904;2024-01-11T09:40:23;-2.80;99.90
11840;DHT22;5979;50.800;4.904;2024-01-11T09:42:49;-2.70;99.90
11840;DHT22;5979;50.800;4.904;2024-01-11T09:45:18;-2.60;99.90
11840;DHT22;5979;50.800;4.904;2024-01-11T09:47:44;-2.60;99.90
11840;DHT22;5979;50.800;4.904;2024-01-11T09:50:15;-2.70;99.90
11840;DHT22;5979;50.800;4.904;2024-01-11T09:52:46;-2.70;99.90
11840;DHT22;5979;50.800;4.904;2024-01-11T09:55:13;-2.70;99.90
11840;DHT22;5979;50.800;4.904;2024-01-11T09:57:41;-2.70;99.90
11840;DHT22;5979;50.800;4.904;2024-01-11T10:00:35;-2.60;99.90
11840;DHT22;5979;50.800;4.904;2024-01-11T10:03:01;-2.60;99.90
11840;DHT22;5979;50.800;4.904;2024-01-11T10:05:27;-2.60;99.90
11840;DHT22;5979;50.800;4.904;2024-01-11T10:07:54;-2.70;99.90
11840;DHT22;5979;50.800;4.904;2024-01-11T10:10:20;-2.50;99.90
11840;DHT22;5979;50.800;4.904;2024-01-11T10:12:47;-2.70;99.90
11840;DHT22;5979;50.800;4.904;2024-01-11T10:15:13;-2.60;99.90
11840;DHT22;5979;50.800;4.904;2024-01-11T10:17:43;-2.50;99.90
11840;DHT22;5979;50.800;4.904;2024-01-11T10:20:10;-2.40;99.90
11840;DHT22;5979;50.800;4.904;2024-01-11T10:22:36;-2.40;99.90
11840;DHT22;5979;50.800;4.904;2024-01-11T10:25:13;-2.40;99.90
11840;DHT22;5979;50.800;4.904;2024-01-11T10:27:43;-2.30;99.90
11840;DHT22;5979;50.800;4.904;2024-01-11T10:30:13;-2.30;99.90
11840;DHT22;5979;50.800;4.904;2024-01-11T10:32:41;-2.40;99.90
11840;DHT22;5979;50.800;4.904;2024-01-11T10:35:07;-2.40;99.90
11840;DHT22;5979;50.800;4.904;2024-01-11T10:37:33;-2.30;99.90
11840;DHT22;5979;50.800;4.904;2024-01-11T10:40:03;-2.20;99.90
11840;DHT22;5979;50.800;4.904;2024-01-11T10:42:35;-2.10;99.90
11840;DHT22;5979;50.800;4.904;2024-01-11T10:45:03;-2.20;99.90
11840;DHT22;5979;50.800;4.904;2024-01-11T10:47:34;-2.10;99.90
11840;DHT22;5979;50.800;4.904;2024-01-11T10:50:01;-2.00;99.90
11840;DHT22;5979;50.800;4.904;2024-01-11T10:52:36;-2.00;99.90
11840;DHT22;5979;50.800;4.904;2024-01-11T10:55:03;-2.00;99.90
11840;DHT22;5979;50.800;4.904;2024-01-11T10:57:29;-2.00;99.90
11840;DHT22;5979;50.800;4.904;2024-01-11T10:59:57;-2.00;99.90
11840;DHT22;5979;50.800;4.904;2024-01-11T11:02:26;-1.90;99.90
11840;DHT22;5979;50.800;4.904;2024-01-11T11:04:53;-1.90;99.90
11840;DHT22;5979;50.800;4.904;2024-01-11T11:07:20;-1.80;99.90
11840;DHT22;5979;50.800;4.904;2024-01-11T11:09:46;-1.80;99.90
11840;DHT22;5979;50.800;4.904;2024-01-11T11:12:15;-1.80;99.90
11840;DHT22;5979;50.800;4.904;2024-01-11T11:14:42;-1.70;99.90
11840;DHT22;5979;50.800;4.904;2024-01-11T11:17:09;-1.60;99.90
11840;DHT22;5979;50.800;4.904;2024-01-11T11:19:35;-1.60;99.90
11840;DHT22;5979;50.800;4.904;2024-01-11T11:22:04;-1.60;99.90
11840;DHT22;5979;50.800;4.904;2024-01-11T11:24:32;-1.50;99.90
11840;DHT22;5979;50.800;4.904;2024-01-11T11:26:59;-1.40;99.90
11840;DHT22;5979;50.800;4.904;2024-01-11T11:29:24;-1.40;99.90
11840;DHT22;5979;50.800;4.904;2024-01-11T11:32:10;-1.40;99.90
11840;DHT22;5979;50.800;4.904;2024-01-11T11:34:42;-1.20;99.90
11840;DHT22;5979;50.800;4.904;2024-01-11T11:37:10;-1.20;99.90
11840;DHT22;5979;50.800;4.904;2024-01-11T11:39:36;-1.20;99.90
11840;DHT22;5979;50.800;4.904;2024-01-11T11:42:02;-1.20;99.90
11840;DHT22;5979;50.800;4.904;2024-01-11T11:44:28;-1.20;99.90
11840;DHT22;5979;50.800;4.904;2024-01-11T11:46:54;-1.10;99.90
11840;DHT22;5979;50.800;4.904;2024-01-11T11:49:20;-1.10;99.90
11840;DHT22;5979;50.800;4.904;2024-01-11T11:51:45;-1.00;99.90
11840;DHT22;5979;50.800;4.904;2024-01-11T11:54:12;-1.00;99.90
11840;DHT22;5979;50.800;4.904;2024-01-11T11:56:40;-1.00;99.90
11840;DHT22;5979;50.800;4.904;2024-01-11T11:59:06;-1.00;99.90
11840;DHT22;5979;50.800;4.904;2024-01-11T12:01:34;-0.90;99.90
11840;DHT22;5979;50.800;4.904;2024-01-11T12:04:00;-0.80;99.90
11840;DHT22;5979;50.800;4.904;2024-01-11T12:06:28;-0.70;99.90
11840;DHT22;5979;50.800;4.904;2024-01-11T12:08:54;-0.70;99.90
11840;DHT22;5979;50.800;4.904;2024-01-11T12:11:21;-0.70;99.90
11840;DHT22;5979;50.800;4.904;2024-01-11T12:13:48;-0.60;99.90
11840;DHT22;5979;50.800;4.904;2024-01-11T12:16:14;-0.60;99.90
11840;DHT22;5979;50.800;4.904;2024-01-11T12:18:40;-0.60;99.90
11840;DHT22;5979;50.800;4.904;2024-01-11T12:21:07;-0.50;99.90
11840;DHT22;5979;50.800;4.904;2024-01-11T12:23:34;-0.50;99.90
11840;DHT22;5979;50.800;4.904;2024-01-11T12:26:03;-0.50;99.90
11840;DHT22;5979;50.800;4.904;2024-01-11T12:28:33;-0.50;99.90
11840;DHT22;5979;50.800;4.904;2024-01-11T12:30:59;-0.50;99.90
11840;DHT22;5979;50.800;4.904;2024-01-11T12:33:26;-0.40;99.90
11840;DHT22;5979;50.800;4.904;2024-01-11T12:35:53;-0.40;99.90
11840;DHT22;5979;50.800;4.904;2024-01-11T12:38:18;-0.30;99.90
11840;DHT22;5979;50.800;4.904;2024-01-11T12:40:46;-0.20;99.90
11840;DHT22;5979;50.800;4.904;2024-01-11T12:43:12;-0.20;99.90
11840;DHT22;5979;50.800;4.904;2024-01-11T12:45:39;-0.10;99.90
11840;DHT22;5979;50.800;4.904;2024-01-11T12:48:09;-0.10;99.90
11840;DHT22;5979;50.800;4.904;2024-01-11T12:50:35;-0.10;99.90
11840;DHT22;5979;50.800;4.904;2024-01-11T12:53:13;0.00;99.90
11840;DHT22;5979;50.800;4.904;2024-01-11T12:55:46;0.00;99.90
11840;DHT22;5979;50.800;4.904;2024-01-11T12:58:12;0.00;99.90
11840;DHT22;5979;50.800;4.904;2024-01-11T13:00:39;0.10;99.90
11840;DHT22;5979;50.800;4.904;2024-01-11T13:03:05;0.10;99.90
11840;DHT22;5979;50.800;4.904;2024-01-11T13:05:32;0.10;99.90
11840;DHT22;5979;50.800;4.904;2024-01-11T13:08:09;0.10;99.90
11840;DHT22;5979;50.800;4.904;2024-01-11T13:10:36;0.20;99.90
11840;DHT22;5979;50.800;4.904;2024-01-11T13:13:02;0.20;99.90
11840;DHT22;5979;50.800;4.904;2024-01-11T13:15:28;0.20;99.90
11840;DHT22;5979;50.800;4.904;2024-01-11T13:17:55;0.20;99.90
11840;DHT22;5979;50.800;4.904;2024-01-11T13:20:22;0.20;99.90
11840;DHT22;5979;50.800;4.904;2024-01-11T13:22:48;0.30;99.90
11840;DHT22;5979;50.800;4.904;2024-01-11T13:25:13;0.30;99.90
11840;DHT22;5979;50.800;4.904;2024-01-11T13:27:39;0.20;99.90
11840;DHT22;5979;50.800;4.904;2024-01-11T13:30:06;0.20;99.90
11840;DHT22;5979;50.800;4.904;2024-01-11T13:32:52;0.20;99.90
11840;DHT22;5979;50.800;4.904;2024-01-11T13:35:18;0.20;99.90
11840;DHT22;5979;50.800;4.904;2024-01-11T13:37:45;0.30;99.90
11840;DHT22;5979;50.800;4.904;2024-01-11T13:40:11;0.30;99.90
11840;DHT22;5979;50.800;4.904;2024-01-11T13:42:39;0.30;99.90
11840;DHT22;5979;50.800;4.904;2024-01-11T13:45:05;0.30;99.90
11840;DHT22;5979;50.800;4.904;2024-01-11T13:47:34;0.30;99.90
11840;DHT22;5979;50.800;4.904;2024-01-11T13:50:00;0.30;99.90
11840;DHT22;5979;50.800;4.904;2024-01-11T13:52:25;0.40;99.90
11840;DHT22;5979;50.800;4.904;2024-01-11T13:54:51;0.40;99.90
11840;DHT22;5979;50.800;4.904;2024-01-11T13:57:17;0.40;99.90
11840;DHT22;5979;50.800;4.904;2024-01-11T13:59:43;0.50;99.90
11840;DHT22;5979;50.800;4.904;2024-01-11T14:02:08;0.40;99.90
11840;DHT22;5979;50.800;4.904;2024-01-11T14:04:34;0.40;99.90
11840;DHT22;5979;50.800;4.904;2024-01-11T14:07:00;0.40;99.90
11840;DHT22;5979;50.800;4.904;2024-01-11T14:09:26;0.40;99.90
11840;DHT22;5979;50.800;4.904;2024-01-11T14:11:52;0.40;99.90
11840;DHT22;5979;50.800;4.904;2024-01-11T14:14:17;0.50;99.90
11840;DHT22;5979;50.800;4.904;2024-01-11T14:16:46;0.50;99.90
11840;DHT22;5979;50.800;4.904;2024-01-11T14:19:12;0.50;99.90
11840;DHT22;5979;50.800;4.904;2024-01-11T14:21:38;0.50;99.90
11840;DHT22;5979;50.800;4.904;2024-01-11T14:24:06;0.50;99.90
11840;DHT22;5979;50.800;4.904;2024-01-11T14:26:32;0.50;99.90
11840;DHT22;5979;50.800;4.904;2024-01-11T14:28:58;0.50;99.90
11840;DHT22;5979;50.800;4.904;2024-01-11T14:31:24;0.50;99.90
11840;DHT22;5979;50.800;4.904;2024-01-11T14:33:50;0.50;99.90
11840;DHT22;5979;50.800;4.904;2024-01-11T14:36:16;0.50;99.90
11840;DHT22;5979;50.800;4.904;2024-01-11T14:38:42;0.50;99.90
11840;DHT22;5979;50.800;4.904;2024-01-11T14:41:09;0.50;99.90
11840;DHT22;5979;50.800;4.904;2024-01-11T14:43:35;0.50;99.90
11840;DHT22;5979;50.800;4.904;2024-01-11T14:46:01;0.50;99.90
11840;DHT22;5979;50.800;4.904;2024-01-11T14:48:27;0.50;99.90
11840;DHT22;5979;50.800;4.904;2024-01-11T14:50:56;0.50;99.90
11840;DHT22;5979;50.800;4.904;2024-01-11T14:53:22;0.50;99.90
11840;DHT22;5979;50.800;4.904;2024-01-11T14:55:48;0.50;99.90
11840;DHT22;5979;50.800;4.904;2024-01-11T14:58:15;0.50;99.90
11840;DHT22;5979;50.800;4.904;2024-01-11T15:00:42;0.50;99.90
11840;DHT22;5979;50.800;4.904;2024-01-11T15:03:08;0.50;99.90
11840;DHT22;5979;50.800;4.904;2024-01-11T15:05:33;0.50;99.90
11840;DHT22;5979;50.800;4.904;2024-01-11T15:07:59;0.50;99.90
11840;DHT22;5979;50.800;4.904;2024-01-11T15:10:25;0.50;99.90
11840;DHT22;5979;50.800;4.904;2024-01-11T15:12:51;0.40;99.90
11840;DHT22;5979;50.800;4.904;2024-01-11T15:15:17;0.40;99.90
11840;DHT22;5979;50.800;4.904;2024-01-11T15:17:44;0.40;99.90
11840;DHT22;5979;50.800;4.904;2024-01-11T15:20:28;0.30;99.90
11840;DHT22;5979;50.800;4.904;2024-01-11T15:22:54;0.30;99.90
11840;DHT22;5979;50.800;4.904;2024-01-11T15:25:19;0.30;99.90
11840;DHT22;5979;50.800;4.904;2024-01-11T15:27:46;0.30;99.90
11840;DHT22;5979;50.800;4.904;2024-01-11T15:30:12;0.30;99.90
11840;DHT22;5979;50.800;4.904;2024-01-11T15:32:39;0.20;99.90
11840;DHT22;5979;50.800;4.904;2024-01-11T15:35:05;0.30;99.90
11840;DHT22;5979;50.800;4.904;2024-01-11T15:37:33;0.20;99.90
11840;DHT22;5979;50.800;4.904;2024-01-11T15:40:00;0.20;99.90
11840;DHT22;5979;50.800;4.904;2024-01-11T15:42:26;0.10;99.90
11840;DHT22;5979;50.800;4.904;2024-01-11T15:44:52;0.10;99.90
11840;DHT22;5979;50.800;4.904;2024-01-11T15:47:18;0.00;99.90
11840;DHT22;5979;50.800;4.904;2024-01-11T15:49:44;0.00;99.90
11840;DHT22;5979;50.800;4.904;2024-01-11T15:52:10;0.00;99.90